Rosa Maersk — OVST2 — position and weather

sailwx.info

Track history (hours):
 
Tides and Currents Weather Stations Pressure Air Temp Water Temp Dewpoint Dewpoint Depression Visibility Wind Speed Wind Dir Waves Ship Positions

Rosa Maersk

Last reported at 2016-Jun-28 12:14 UTC. Time now 2016-Jun-28 22:28 UTC.
Position N 51°27' E 002°41'.

Length 172 m; draft 11.8 m.

Type: Ship. MMSI: 220288000.

Date/timePositionNaut miles runAvg speedWind from/ knotsBaromVisibWave heightAir tempDewpointWater temp
2016-Jun-28 12:14N 51°27' E 002°41'0 0.0
2016-Jun-28 11:29N 51°27' E 002°41'0 0.0
2016-Jun-28 00:08N 51°27' E 002°41'0 0.0
2016-Jun-27 23:32N 51°27' E 002°41'0 0.1
2016-Jun-27 22:32N 51°27' E 002°41'1 0.0
2016-Jun-27 08:13N 51°27' E 002°42'5 7.8
2016-Jun-27 07:33N 51°24' E 002°35'1312.7
2016-Jun-27 06:32N 51°18' E 002°18'1414.1
2016-Jun-27 05:33N 51°11' E 001°58'1514.9
2016-Jun-27 04:34N 51°02' E 001°39'7013.6
2016-Jun-26 23:25N 50°21' E 000°10'1313.4
2016-Jun-26 22:27N 50°17' W 000°09'1512.6
2016-Jun-26 21:15N 50°13' W 000°32'911.7
2016-Jun-26 20:29N 50°11' W 000°45'2010.4
2016-Jun-26 18:33N 50°06' W 001°16'6111.3
2016-Jun-26 13:09N 49°49' W 002°47'2213.6
2016-Jun-26 11:31N 49°39' W 003°17'9413.4
2016-Jun-26 04:33N 48°53' W 005°22'  
2016-Jun-23 23:10N 39°10' W 009°57'711.0
2016-Jun-23 22:30N 39°02' W 009°57'1311.4
2016-Jun-23 21:20N 38°49' W 009°57'911.0
2016-Jun-23 20:30N 38°40' W 009°56'1111.5
2016-Jun-23 19:33N 38°29' W 009°53'1211.2
2016-Jun-23 18:31N 38°18' W 009°50'1111.6
2016-Jun-23 17:33N 38°07' W 009°47'1211.7
2016-Jun-23 16:32N 37°55' W 009°43'1212.1
2016-Jun-23 15:33N 37°44' W 009°40'1212.3
2016-Jun-23 14:33N 37°32' W 009°36'2412.0
2016-Jun-23 12:33N 37°08' W 009°29'1512.2
2016-Jun-23 11:18N 36°54' W 009°25'6711.6
2016-Jun-23 05:33N 36°31' W 008°07'1413.1
2016-Jun-23 04:29N 36°26' W 007°50'1213.0
2016-Jun-23 03:33N 36°22' W 007°36'10112.0
2016-Jun-22 19:06N 35°58' W 005°34'6 9.4
2016-Jun-22 18:30N 35°59' W 005°27'8 7.5
2016-Jun-22 17:25N 36°07' W 005°24'1 0.1
2016-Jun-22 10:07N 36°08' W 005°24'1 2.3
2016-Jun-22 09:33N 36°07' W 005°24'5 2.7
2016-Jun-22 07:33N 36°04' W 005°18'0 0.2
2016-Jun-22 06:18N 36°04' W 005°18'2 2.0
2016-Jun-22 05:28N 36°03' W 005°20'1 1.2
2016-Jun-22 04:31N 36°05' W 005°20'1 0.7
2016-Jun-22 03:31N 36°04' W 005°19'3 2.8
2016-Jun-22 02:33N 36°05' W 005°23'1 0.4
2016-Jun-22 01:11N 36°06' W 005°23'3 1.8
2016-Jun-21 23:30N 36°04' W 005°20'12611.5
2016-Jun-21 12:33N 36°22' W 002°45'1212.1
2016-Jun-21 11:33N 36°24' W 002°30'1312.1
2016-Jun-21 10:27N 36°25' W 002°14'7212.0
2016-Jun-21 04:29N 36°45' W 000°48'2812.0
2016-Jun-21 02:06N 36°54' W 000°14'712.7
2016-Jun-21 01:33N 36°56' W 000°06'1212.5
2016-Jun-21 00:33N 36°60' E 000°09'1312.8
2016-Jun-20 23:33N 37°03' E 000°25'1312.7
2016-Jun-20 22:33N 37°06' E 000°40'1312.6
2016-Jun-20 21:32N 37°10' E 000°56'51811.2
2016-Jun-18 23:26N 37°15' E 011°46'1011.4
2016-Jun-18 22:33N 37°10' E 011°58'1411.0
2016-Jun-18 21:15N 37°05' E 012°15'4811.7
2016-Jun-18 17:07N 36°47' E 013°10'611.4
2016-Jun-18 16:33N 36°44' E 013°18'1111.1
2016-Jun-18 15:33N 36°40' E 013°31'1211.6
2016-Jun-18 14:33N 36°36' E 013°44'1212.1
2016-Jun-18 13:34N 36°31' E 013°58'1212.5
2016-Jun-18 12:34N 36°25' E 014°11'  
Track history (hours):
 
Tides and Currents Weather Stations Pressure Air Temp Water Temp Dewpoint Dewpoint Depression Visibility Wind Speed Wind Dir Waves Ship Positions

Rosa Maersk

Last reported at 2016-Jun-28 12:14 UTC. Time now 2016-Jun-28 22:28 UTC.
Position N 51°27' E 002°41'.

Length 172 m; draft 11.8 m.

Type: Ship. MMSI: 220288000.

Date/timePositionNaut miles runAvg speedWind from/ knotsBaromVisibWave heightAir tempDewpointWater temp
2016-Jun-28 12:14N 51°27' E 002°41'0 0.0
2016-Jun-28 11:29N 51°27' E 002°41'0 0.0
2016-Jun-28 00:08N 51°27' E 002°41'0 0.0
2016-Jun-27 23:32N 51°27' E 002°41'0 0.1
2016-Jun-27 22:32N 51°27' E 002°41'1 0.0
2016-Jun-27 08:13N 51°27' E 002°42'5 7.8
2016-Jun-27 07:33N 51°24' E 002°35'1312.7
2016-Jun-27 06:32N 51°18' E 002°18'1414.1
2016-Jun-27 05:33N 51°11' E 001°58'1514.9
2016-Jun-27 04:34N 51°02' E 001°39'7013.6
2016-Jun-26 23:25N 50°21' E 000°10'1313.4
2016-Jun-26 22:27N 50°17' W 000°09'1512.6
2016-Jun-26 21:15N 50°13' W 000°32'911.7
2016-Jun-26 20:29N 50°11' W 000°45'2010.4
2016-Jun-26 18:33N 50°06' W 001°16'6111.3
2016-Jun-26 13:09N 49°49' W 002°47'2213.6
2016-Jun-26 11:31N 49°39' W 003°17'9413.4
2016-Jun-26 04:33N 48°53' W 005°22'  
2016-Jun-23 23:10N 39°10' W 009°57'711.0
2016-Jun-23 22:30N 39°02' W 009°57'1311.4
2016-Jun-23 21:20N 38°49' W 009°57'911.0
2016-Jun-23 20:30N 38°40' W 009°56'1111.5
2016-Jun-23 19:33N 38°29' W 009°53'1211.2
2016-Jun-23 18:31N 38°18' W 009°50'1111.6
2016-Jun-23 17:33N 38°07' W 009°47'1211.7
2016-Jun-23 16:32N 37°55' W 009°43'1212.1
2016-Jun-23 15:33N 37°44' W 009°40'1212.3
2016-Jun-23 14:33N 37°32' W 009°36'2412.0
2016-Jun-23 12:33N 37°08' W 009°29'1512.2
2016-Jun-23 11:18N 36°54' W 009°25'6711.6
2016-Jun-23 05:33N 36°31' W 008°07'1413.1
2016-Jun-23 04:29N 36°26' W 007°50'1213.0
2016-Jun-23 03:33N 36°22' W 007°36'10112.0
2016-Jun-22 19:06N 35°58' W 005°34'6 9.4
2016-Jun-22 18:30N 35°59' W 005°27'8 7.5
2016-Jun-22 17:25N 36°07' W 005°24'1 0.1
2016-Jun-22 10:07N 36°08' W 005°24'1 2.3
2016-Jun-22 09:33N 36°07' W 005°24'5 2.7
2016-Jun-22 07:33N 36°04' W 005°18'0 0.2
2016-Jun-22 06:18N 36°04' W 005°18'2 2.0
2016-Jun-22 05:28N 36°03' W 005°20'1 1.2
2016-Jun-22 04:31N 36°05' W 005°20'1 0.7
2016-Jun-22 03:31N 36°04' W 005°19'3 2.8
2016-Jun-22 02:33N 36°05' W 005°23'1 0.4
2016-Jun-22 01:11N 36°06' W 005°23'3 1.8
2016-Jun-21 23:30N 36°04' W 005°20'12611.5
2016-Jun-21 12:33N 36°22' W 002°45'1212.1
2016-Jun-21 11:33N 36°24' W 002°30'1312.1
2016-Jun-21 10:27N 36°25' W 002°14'7212.0
2016-Jun-21 04:29N 36°45' W 000°48'2812.0
2016-Jun-21 02:06N 36°54' W 000°14'712.7
2016-Jun-21 01:33N 36°56' W 000°06'1212.5
2016-Jun-21 00:33N 36°60' E 000°09'1312.8
2016-Jun-20 23:33N 37°03' E 000°25'1312.7
2016-Jun-20 22:33N 37°06' E 000°40'1312.6
2016-Jun-20 21:32N 37°10' E 000°56'51811.2
2016-Jun-18 23:26N 37°15' E 011°46'1011.4
2016-Jun-18 22:33N 37°10' E 011°58'1411.0
2016-Jun-18 21:15N 37°05' E 012°15'4811.7
2016-Jun-18 17:07N 36°47' E 013°10'611.4
2016-Jun-18 16:33N 36°44' E 013°18'1111.1
2016-Jun-18 15:33N 36°40' E 013°31'1211.6
2016-Jun-18 14:33N 36°36' E 013°44'1212.1
2016-Jun-18 13:34N 36°31' E 013°58'1212.5
2016-Jun-18 12:34N 36°25' E 014°11'  

Dump ship's entire track history